sensor_id;sensor_type;location;lat;lon;timestamp;pressure;altitude;pressure_sealevel;temperature;humidity
6090;BME280;3073;42.660;23.316;2023-08-17T00:01:32;94619.06;;;28.36;71.02
6090;BME280;3073;42.660;23.316;2023-08-17T00:03:59;94621.22;;;28.11;72.06
6090;BME280;3073;42.660;23.316;2023-08-17T00:06:26;94622.84;;;28.20;72.64
6090;BME280;3073;42.660;23.316;2023-08-17T00:08:53;94625.75;;;28.15;72.63
6090;BME280;3073;42.660;23.316;2023-08-17T00:11:26;94621.34;;;28.19;73.09
6090;BME280;3073;42.660;23.316;2023-08-17T00:13:53;94624.91;;;28.10;74.08
6090;BME280;3073;42.660;23.316;2023-08-17T00:16:21;94619.75;;;28.52;71.86
6090;BME280;3073;42.660;23.316;2023-08-17T00:18:48;94621.22;;;28.11;74.25
6090;BME280;3073;42.660;23.316;2023-08-17T00:21:15;94629.34;;;28.26;74.01
6090;BME280;3073;42.660;23.316;2023-08-17T00:23:43;94623.84;;;28.31;74.45
6090;BME280;3073;42.660;23.316;2023-08-17T00:26:09;94622.09;;;28.19;74.55
6090;BME280;3073;42.660;23.316;2023-08-17T00:28:37;94625.06;;;28.72;72.49
6090;BME280;3073;42.660;23.316;2023-08-17T00:31:04;94624.25;;;28.33;73.91
6090;BME280;3073;42.660;23.316;2023-08-17T00:33:32;94626.59;;;28.19;74.46
6090;BME280;3073;42.660;23.316;2023-08-17T00:35:58;94620.38;;;28.27;73.60
6090;BME280;3073;42.660;23.316;2023-08-17T00:38:26;94619.13;;;28.40;72.84
6090;BME280;3073;42.660;23.316;2023-08-17T00:40:52;94617.75;;;28.46;72.45
6090;BME280;3073;42.660;23.316;2023-08-17T00:43:20;94624.00;;;28.38;71.97
6090;BME280;3073;42.660;23.316;2023-08-17T00:45:47;94620.69;;;28.06;72.53
6090;BME280;3073;42.660;23.316;2023-08-17T00:48:14;94613.56;;;28.80;68.67
6090;BME280;3073;42.660;23.316;2023-08-17T00:50:43;94616.09;;;28.19;69.58
6090;BME280;3073;42.660;23.316;2023-08-17T00:53:12;94617.47;;;27.97;69.45
6090;BME280;3073;42.660;23.316;2023-08-17T00:55:41;94621.00;;;27.70;69.76
6090;BME280;3073;42.660;23.316;2023-08-17T00:58:08;94614.06;;;27.77;69.00
6090;BME280;3073;42.660;23.316;2023-08-17T01:00:35;94611.44;;;27.77;67.50
6090;BME280;3073;42.660;23.316;2023-08-17T01:03:02;94612.84;;;27.90;66.30
6090;BME280;3073;42.660;23.316;2023-08-17T01:05:30;94614.53;;;27.83;64.94
6090;BME280;3073;42.660;23.316;2023-08-17T01:07:59;94609.03;;;28.23;62.34
6090;BME280;3073;42.660;23.316;2023-08-17T01:10:29;94614.78;;;27.93;62.97
6090;BME280;3073;42.660;23.316;2023-08-17T01:13:03;94610.34;;;28.32;61.04
6090;BME280;3073;42.660;23.316;2023-08-17T01:15:36;94605.88;;;28.33;59.94
6090;BME280;3073;42.660;23.316;2023-08-17T01:18:09;94603.00;;;27.68;60.21
6090;BME280;3073;42.660;23.316;2023-08-17T01:20:38;94607.44;;;27.83;59.84
6090;BME280;3073;42.660;23.316;2023-08-17T01:23:06;94603.94;;;28.10;58.97
6090;BME280;3073;42.660;23.316;2023-08-17T01:25:33;94601.03;;;28.16;57.73
6090;BME280;3073;42.660;23.316;2023-08-17T01:28:02;94602.56;;;28.01;57.42
6090;BME280;3073;42.660;23.316;2023-08-17T01:30:33;94597.16;;;27.75;57.65
6090;BME280;3073;42.660;23.316;2023-08-17T01:33:06;94593.94;;;28.35;56.51
6090;BME280;3073;42.660;23.316;2023-08-17T01:35:37;94600.50;;;27.91;56.60
6090;BME280;3073;42.660;23.316;2023-08-17T01:38:09;94598.03;;;27.98;56.58
6090;BME280;3073;42.660;23.316;2023-08-17T01:40:40;94600.50;;;27.91;57.19
6090;BME280;3073;42.660;23.316;2023-08-17T01:43:09;94600.06;;;27.89;57.62
6090;BME280;3073;42.660;23.316;2023-08-17T01:45:37;94600.25;;;27.80;57.95
6090;BME280;3073;42.660;23.316;2023-08-17T01:48:04;94603.34;;;27.86;57.65
6090;BME280;3073;42.660;23.316;2023-08-17T01:50:31;94600.41;;;27.87;57.41
6090;BME280;3073;42.660;23.316;2023-08-17T01:52:58;94589.03;;;27.33;58.01
6090;BME280;3073;42.660;23.316;2023-08-17T01:55:26;94599.69;;;27.71;57.18
6090;BME280;3073;42.660;23.316;2023-08-17T01:57:53;94602.19;;;27.83;56.87
6090;BME280;3073;42.660;23.316;2023-08-17T02:00:20;94592.25;;;27.26;57.77
6090;BME280;3073;42.660;23.316;2023-08-17T02:02:47;94597.41;;;27.54;57.43
6090;BME280;3073;42.660;23.316;2023-08-17T02:05:14;94592.34;;;27.61;57.27
6090;BME280;3073;42.660;23.316;2023-08-17T02:07:40;94597.56;;;27.77;57.45
6090;BME280;3073;42.660;23.316;2023-08-17T02:10:08;94598.34;;;27.15;58.61
6090;BME280;3073;42.660;23.316;2023-08-17T02:12:36;94600.88;;;27.58;57.87
6090;BME280;3073;42.660;23.316;2023-08-17T02:15:04;94602.16;;;27.64;57.68
6090;BME280;3073;42.660;23.316;2023-08-17T02:17:31;94594.88;;;27.26;58.97
6090;BME280;3073;42.660;23.316;2023-08-17T02:19:57;94593.25;;;27.06;59.64
6090;BME280;3073;42.660;23.316;2023-08-17T02:22:24;94586.09;;;27.19;59.39
6090;BME280;3073;42.660;23.316;2023-08-17T02:24:51;94593.03;;;27.58;59.12
6090;BME280;3073;42.660;23.316;2023-08-17T02:27:18;94584.66;;;27.21;60.36
6090;BME280;3073;42.660;23.316;2023-08-17T02:29:46;94587.75;;;27.27;59.93
6090;BME280;3073;42.660;23.316;2023-08-17T02:32:12;94594.47;;;27.90;58.54
6090;BME280;3073;42.660;23.316;2023-08-17T02:34:39;94590.75;;;27.91;57.77
6090;BME280;3073;42.660;23.316;2023-08-17T02:37:06;94592.84;;;27.20;60.21
6090;BME280;3073;42.660;23.316;2023-08-17T02:39:33;94591.47;;;27.26;59.82
6090;BME280;3073;42.660;23.316;2023-08-17T02:41:59;94588.06;;;26.78;62.08
6090;BME280;3073;42.660;23.316;2023-08-17T02:44:26;94584.28;;;26.91;61.53
6090;BME280;3073;42.660;23.316;2023-08-17T02:46:55;94586.69;;;26.69;62.28
6090;BME280;3073;42.660;23.316;2023-08-17T02:49:21;94588.59;;;26.84;61.89
6090;BME280;3073;42.660;23.316;2023-08-17T02:51:48;94582.84;;;27.09;61.15
6090;BME280;3073;42.660;23.316;2023-08-17T02:54:15;94578.72;;;27.08;61.25
6090;BME280;3073;42.660;23.316;2023-08-17T02:56:42;94579.38;;;27.05;61.62
6090;BME280;3073;42.660;23.316;2023-08-17T02:59:09;94578.66;;;27.21;61.15
6090;BME280;3073;42.660;23.316;2023-08-17T03:01:36;94577.97;;;27.08;61.79
6090;BME280;3073;42.660;23.316;2023-08-17T03:04:04;94583.34;;;26.99;61.61
6090;BME280;3073;42.660;23.316;2023-08-17T03:06:31;94583.13;;;27.20;61.42
6090;BME280;3073;42.660;23.316;2023-08-17T03:08:57;94581.69;;;27.38;61.05
6090;BME280;3073;42.660;23.316;2023-08-17T03:11:24;94584.56;;;27.49;61.10
6090;BME280;3073;42.660;23.316;2023-08-17T03:13:51;94585.88;;;27.43;60.75
6090;BME280;3073;42.660;23.316;2023-08-17T03:16:20;94583.63;;;27.57;60.46
6090;BME280;3073;42.660;23.316;2023-08-17T03:18:47;94583.41;;;27.81;59.82
6090;BME280;3073;42.660;23.316;2023-08-17T03:21:15;94591.66;;;27.64;60.34
6090;BME280;3073;42.660;23.316;2023-08-17T03:23:43;94591.78;;;27.52;60.91
6090;BME280;3073;42.660;23.316;2023-08-17T03:26:09;94585.06;;;27.07;61.75
6090;BME280;3073;42.660;23.316;2023-08-17T03:28:36;94589.38;;;27.31;61.65
6090;BME280;3073;42.660;23.316;2023-08-17T03:31:03;94587.34;;;27.25;61.59
6090;BME280;3073;42.660;23.316;2023-08-17T03:33:30;94589.63;;;27.42;60.70
6090;BME280;3073;42.660;23.316;2023-08-17T03:35:57;94590.81;;;27.29;60.50
6090;BME280;3073;42.660;23.316;2023-08-17T03:38:26;94591.34;;;27.19;59.74
6090;BME280;3073;42.660;23.316;2023-08-17T03:40:53;94588.84;;;27.10;59.82
6090;BME280;3073;42.660;23.316;2023-08-17T03:43:20;94597.31;;;27.19;59.16
6090;BME280;3073;42.660;23.316;2023-08-17T03:45:47;94592.59;;;27.25;59.71
6090;BME280;3073;42.660;23.316;2023-08-17T03:48:14;94596.56;;;27.34;58.94
6090;BME280;3073;42.660;23.316;2023-08-17T03:50:40;94596.94;;;26.89;60.40
6090;BME280;3073;42.660;23.316;2023-08-17T03:53:07;94599.47;;;26.86;58.74
6090;BME280;3073;42.660;23.316;2023-08-17T03:55:35;94605.44;;;27.30;58.00
6090;BME280;3073;42.660;23.316;2023-08-17T03:58:02;94608.13;;;27.33;57.83
6090;BME280;3073;42.660;23.316;2023-08-17T04:00:29;94605.53;;;27.49;56.56
6090;BME280;3073;42.660;23.316;2023-08-17T04:02:56;94615.16;;;27.76;55.94
6090;BME280;3073;42.660;23.316;2023-08-17T04:05:23;94611.22;;;28.01;55.52
6090;BME280;3073;42.660;23.316;2023-08-17T04:07:50;94610.50;;;27.85;56.03
6090;BME280;3073;42.660;23.316;2023-08-17T04:10:17;94603.97;;;27.79;55.44
6090;BME280;3073;42.660;23.316;2023-08-17T04:12:45;94615.38;;;27.87;55.34
6090;BME280;3073;42.660;23.316;2023-08-17T04:15:12;94617.53;;;28.16;54.79
6090;BME280;3073;42.660;23.316;2023-08-17T04:17:39;94619.66;;;28.10;55.10
6090;BME280;3073;42.660;23.316;2023-08-17T04:20:07;94612.25;;;28.32;54.34
6090;BME280;3073;42.660;23.316;2023-08-17T04:22:34;94620.69;;;28.06;54.67
6090;BME280;3073;42.660;23.316;2023-08-17T04:25:01;94611.41;;;28.08;55.06
6090;BME280;3073;42.660;23.316;2023-08-17T04:27:28;94610.06;;;27.83;55.48
6090;BME280;3073;42.660;23.316;2023-08-17T04:29:56;94615.97;;;28.11;55.48
6090;BME280;3073;42.660;23.316;2023-08-17T04:32:23;94606.66;;;27.98;54.82
6090;BME280;3073;42.660;23.316;2023-08-17T04:34:50;94608.97;;;27.84;55.45
6090;BME280;3073;42.660;23.316;2023-08-17T04:37:17;94607.66;;;28.09;55.32
6090;BME280;3073;42.660;23.316;2023-08-17T04:39:44;94607.06;;;28.54;53.95
6090;BME280;3073;42.660;23.316;2023-08-17T04:42:13;94603.34;;;28.55;53.39
6090;BME280;3073;42.660;23.316;2023-08-17T04:44:40;94609.75;;;28.58;53.69
6090;BME280;3073;42.660;23.316;2023-08-17T04:47:09;94604.09;;;28.75;53.25
6090;BME280;3073;42.660;23.316;2023-08-17T04:49:36;94603.53;;;28.28;53.93
6090;BME280;3073;42.660;23.316;2023-08-17T04:52:03;94597.78;;;28.80;53.01
6090;BME280;3073;42.660;23.316;2023-08-17T04:54:30;94612.72;;;28.56;53.78
6090;BME280;3073;42.660;23.316;2023-08-17T04:56:57;94600.66;;;28.71;53.16
6090;BME280;3073;42.660;23.316;2023-08-17T04:59:24;94600.84;;;28.82;52.96
6090;BME280;3073;42.660;23.316;2023-08-17T05:01:51;94600.00;;;28.78;52.94
6090;BME280;3073;42.660;23.316;2023-08-17T05:04:21;94599.84;;;29.12;52.68
6090;BME280;3073;42.660;23.316;2023-08-17T05:06:48;94598.34;;;29.11;51.68
6090;BME280;3073;42.660;23.316;2023-08-17T05:09:15;94596.19;;;29.17;51.87
6090;BME280;3073;42.660;23.316;2023-08-17T05:11:42;94605.31;;;29.46;51.77
6090;BME280;3073;42.660;23.316;2023-08-17T05:14:09;94600.13;;;29.27;52.15
6090;BME280;3073;42.660;23.316;2023-08-17T05:16:35;94597.50;;;29.27;51.95
6090;BME280;3073;42.660;23.316;2023-08-17T05:19:03;94597.66;;;29.37;52.36
6090;BME280;3073;42.660;23.316;2023-08-17T05:21:31;94598.53;;;29.45;51.94
6090;BME280;3073;42.660;23.316;2023-08-17T05:23:58;94599.81;;;29.54;51.94
6090;BME280;3073;42.660;23.316;2023-08-17T05:26:24;94598.84;;;29.66;51.83
6090;BME280;3073;42.660;23.316;2023-08-17T05:28:51;94600.81;;;29.73;51.42
6090;BME280;3073;42.660;23.316;2023-08-17T05:31:18;94605.91;;;30.11;50.89
6090;BME280;3073;42.660;23.316;2023-08-17T05:33:45;94608.59;;;30.78;49.35
6090;BME280;3073;42.660;23.316;2023-08-17T05:36:12;94605.09;;;31.47;48.25
6090;BME280;3073;42.660;23.316;2023-08-17T05:38:41;94604.97;;;31.81;47.11
6090;BME280;3073;42.660;23.316;2023-08-17T05:41:08;94615.22;;;32.58;46.29
6090;BME280;3073;42.660;23.316;2023-08-17T05:43:35;94609.97;;;32.65;46.15
6090;BME280;3073;42.660;23.316;2023-08-17T05:46:02;94612.38;;;33.41;45.01
6090;BME280;3073;42.660;23.316;2023-08-17T05:48:29;94608.22;;;33.29;44.73
6090;BME280;3073;42.660;23.316;2023-08-17T05:50:56;94613.53;;;33.61;43.52
6090;BME280;3073;42.660;23.316;2023-08-17T05:53:23;94612.78;;;33.64;43.44
6090;BME280;3073;42.660;23.316;2023-08-17T05:55:52;94618.50;;;34.88;41.57
6090;BME280;3073;42.660;23.316;2023-08-17T05:58:18;94618.69;;;34.39;42.27
6090;BME280;3073;42.660;23.316;2023-08-17T06:00:45;94623.19;;;35.29;41.12
6090;BME280;3073;42.660;23.316;2023-08-17T06:03:12;94621.53;;;34.83;41.12
6090;BME280;3073;42.660;23.316;2023-08-17T06:05:39;94628.53;;;34.38;41.95
6090;BME280;3073;42.660;23.316;2023-08-17T06:08:06;94625.94;;;35.14;40.89
6090;BME280;3073;42.660;23.316;2023-08-17T06:10:33;94631.56;;;34.40;41.51
6090;BME280;3073;42.660;23.316;2023-08-17T06:13:01;94622.16;;;35.08;40.44
6090;BME280;3073;42.660;23.316;2023-08-17T06:15:28;94623.97;;;35.74;39.78
6090;BME280;3073;42.660;23.316;2023-08-17T06:17:54;94625.19;;;36.06;39.29
6090;BME280;3073;42.660;23.316;2023-08-17T06:20:22;94627.06;;;35.13;39.48
6090;BME280;3073;42.660;23.316;2023-08-17T06:22:49;94634.69;;;36.07;38.49
6090;BME280;3073;42.660;23.316;2023-08-17T06:25:15;94626.34;;;36.43;38.82
6090;BME280;3073;42.660;23.316;2023-08-17T06:27:42;94629.28;;;36.52;38.86
6090;BME280;3073;42.660;23.316;2023-08-17T06:30:12;94622.72;;;36.90;37.87
6090;BME280;3073;42.660;23.316;2023-08-17T06:32:39;94634.13;;;37.44;36.79
6090;BME280;3073;42.660;23.316;2023-08-17T06:35:06;94629.19;;;36.62;37.84
6090;BME280;3073;42.660;23.316;2023-08-17T06:37:33;94627.78;;;37.11;37.56
6090;BME280;3073;42.660;23.316;2023-08-17T06:40:00;94629.31;;;37.62;37.17
6090;BME280;3073;42.660;23.316;2023-08-17T06:42:28;94636.47;;;36.85;38.39
6090;BME280;3073;42.660;23.316;2023-08-17T06:44:55;94635.06;;;37.07;37.80
6090;BME280;3073;42.660;23.316;2023-08-17T06:47:23;94637.63;;;37.14;37.98
6090;BME280;3073;42.660;23.316;2023-08-17T06:49:50;94633.13;;;36.10;38.53
6090;BME280;3073;42.660;23.316;2023-08-17T06:52:17;94630.81;;;35.20;40.71
6090;BME280;3073;42.660;23.316;2023-08-17T06:54:43;94639.31;;;37.28;38.33
6090;BME280;3073;42.660;23.316;2023-08-17T06:57:10;94634.84;;;37.22;38.36
6090;BME280;3073;42.660;23.316;2023-08-17T06:59:37;94635.31;;;37.40;37.79
6090;BME280;3073;42.660;23.316;2023-08-17T07:02:04;94641.72;;;36.92;37.71
6090;BME280;3073;42.660;23.316;2023-08-17T07:04:32;94640.66;;;37.40;36.83
6090;BME280;3073;42.660;23.316;2023-08-17T07:06:59;94626.31;;;36.77;38.21
6090;BME280;3073;42.660;23.316;2023-08-17T07:09:27;94639.25;;;37.58;37.35
6090;BME280;3073;42.660;23.316;2023-08-17T07:11:54;94635.88;;;37.78;36.45
6090;BME280;3073;42.660;23.316;2023-08-17T07:14:21;94636.13;;;37.37;36.84
6090;BME280;3073;42.660;23.316;2023-08-17T07:16:48;94635.72;;;38.11;35.83
6090;BME280;3073;42.660;23.316;2023-08-17T07:19:15;94632.66;;;37.67;35.01
6090;BME280;3073;42.660;23.316;2023-08-17T07:21:43;94631.88;;;37.43;35.49
6090;BME280;3073;42.660;23.316;2023-08-17T07:24:14;94627.91;;;38.80;34.14
6090;BME280;3073;42.660;23.316;2023-08-17T07:26:43;94624.66;;;38.52;33.89
6090;BME280;3073;42.660;23.316;2023-08-17T07:29:10;94622.38;;;36.58;35.16
6090;BME280;3073;42.660;23.316;2023-08-17T07:31:38;94624.13;;;37.02;35.17
6090;BME280;3073;42.660;23.316;2023-08-17T07:34:06;94623.06;;;37.23;34.65
6090;BME280;3073;42.660;23.316;2023-08-17T07:36:33;94621.34;;;37.82;34.08
6090;BME280;3073;42.660;23.316;2023-08-17T07:39:02;94623.41;;;37.25;33.37
6090;BME280;3073;42.660;23.316;2023-08-17T07:41:30;94627.31;;;37.17;34.23
6090;BME280;3073;42.660;23.316;2023-08-17T07:43:57;94633.09;;;37.11;33.72
6090;BME280;3073;42.660;23.316;2023-08-17T07:46:24;94619.97;;;36.33;33.55
6090;BME280;3073;42.660;23.316;2023-08-17T07:48:51;94624.84;;;37.79;33.38
6090;BME280;3073;42.660;23.316;2023-08-17T07:51:17;94626.53;;;38.91;31.93
6090;BME280;3073;42.660;23.316;2023-08-17T07:53:44;94625.66;;;38.78;32.25
6090;BME280;3073;42.660;23.316;2023-08-17T07:56:13;94634.38;;;37.77;33.04
6090;BME280;3073;42.660;23.316;2023-08-17T07:58:40;94631.31;;;37.78;33.81
6090;BME280;3073;42.660;23.316;2023-08-17T08:01:06;94622.28;;;36.65;34.77
6090;BME280;3073;42.660;23.316;2023-08-17T08:03:33;94623.47;;;36.27;35.33
6090;BME280;3073;42.660;23.316;2023-08-17T08:06:00;94616.75;;;37.36;34.23
6090;BME280;3073;42.660;23.316;2023-08-17T08:08:27;94604.75;;;38.57;32.68
6090;BME280;3073;42.660;23.316;2023-08-17T08:10:54;94607.66;;;37.80;32.84
6090;BME280;3073;42.660;23.316;2023-08-17T08:13:22;94614.94;;;38.82;32.80
6090;BME280;3073;42.660;23.316;2023-08-17T08:15:50;94610.72;;;37.59;33.90
6090;BME280;3073;42.660;23.316;2023-08-17T08:18:17;94609.34;;;38.37;32.61
6090;BME280;3073;42.660;23.316;2023-08-17T08:20:44;94603.53;;;38.42;31.82
6090;BME280;3073;42.660;23.316;2023-08-17T08:23:11;94609.84;;;38.87;32.41
6090;BME280;3073;42.660;23.316;2023-08-17T08:25:38;94604.31;;;39.62;32.07
6090;BME280;3073;42.660;23.316;2023-08-17T08:28:05;94602.22;;;39.70;31.68
6090;BME280;3073;42.660;23.316;2023-08-17T08:30:33;94602.72;;;37.59;33.68
6090;BME280;3073;42.660;23.316;2023-08-17T08:33:02;94610.69;;;39.69;31.99
6090;BME280;3073;42.660;23.316;2023-08-17T08:35:29;94605.34;;;39.36;32.73
6090;BME280;3073;42.660;23.316;2023-08-17T08:37:58;94599.84;;;38.91;32.21
6090;BME280;3073;42.660;23.316;2023-08-17T08:40:28;94602.63;;;39.20;32.33
6090;BME280;3073;42.660;23.316;2023-08-17T08:42:55;94601.22;;;39.80;31.51
6090;BME280;3073;42.660;23.316;2023-08-17T08:45:23;94606.06;;;39.37;32.20
6090;BME280;3073;42.660;23.316;2023-08-17T08:47:52;94604.06;;;39.89;31.58
6090;BME280;3073;42.660;23.316;2023-08-17T08:50:20;94606.47;;;40.83;31.19
6090;BME280;3073;42.660;23.316;2023-08-17T08:52:54;94599.88;;;39.88;31.41
6090;BME280;3073;42.660;23.316;2023-08-17T08:55:27;94600.03;;;38.05;32.78
6090;BME280;3073;42.660;23.316;2023-08-17T08:57:56;94590.41;;;38.87;32.63
6090;BME280;3073;42.660;23.316;2023-08-17T09:00:24;94589.88;;;38.76;33.02
6090;BME280;3073;42.660;23.316;2023-08-17T09:02:55;94589.09;;;40.21;31.41
6090;BME280;3073;42.660;23.316;2023-08-17T09:05:23;94589.97;;;39.56;31.15
6090;BME280;3073;42.660;23.316;2023-08-17T09:07:52;94579.00;;;40.53;30.13
6090;BME280;3073;42.660;23.316;2023-08-17T09:10:19;94584.53;;;41.13;30.09
6090;BME280;3073;42.660;23.316;2023-08-17T09:12:46;94577.22;;;41.13;29.89
6090;BME280;3073;42.660;23.316;2023-08-17T09:15:13;94572.50;;;38.68;31.47
6090;BME280;3073;42.660;23.316;2023-08-17T09:17:40;94566.22;;;39.10;31.72
6090;BME280;3073;42.660;23.316;2023-08-17T09:20:10;94567.97;;;39.00;31.99
6090;BME280;3073;42.660;23.316;2023-08-17T09:22:38;94566.28;;;40.57;30.86
6090;BME280;3073;42.660;23.316;2023-08-17T09:25:06;94558.78;;;40.52;30.70
6090;BME280;3073;42.660;23.316;2023-08-17T09:27:33;94555.41;;;41.62;29.53
6090;BME280;3073;42.660;23.316;2023-08-17T09:30:04;94560.75;;;40.23;30.47
6090;BME280;3073;42.660;23.316;2023-08-17T09:32:32;94558.31;;;40.00;30.77
6090;BME280;3073;42.660;23.316;2023-08-17T09:35:00;94562.69;;;40.77;29.53
6090;BME280;3073;42.660;23.316;2023-08-17T09:37:30;94556.69;;;41.92;29.11
6090;BME280;3073;42.660;23.316;2023-08-17T09:39:57;94542.50;;;41.70;29.30
6090;BME280;3073;42.660;23.316;2023-08-17T09:42:24;94543.59;;;39.79;30.09
6090;BME280;3073;42.660;23.316;2023-08-17T09:44:51;94549.13;;;40.42;29.91
6090;BME280;3073;42.660;23.316;2023-08-17T09:47:18;94539.28;;;40.39;29.27
6090;BME280;3073;42.660;23.316;2023-08-17T09:49:48;94548.09;;;41.16;28.96
6090;BME280;3073;42.660;23.316;2023-08-17T09:52:16;94538.25;;;38.66;30.38
6090;BME280;3073;42.660;23.316;2023-08-17T09:54:45;94528.47;;;39.28;30.63
6090;BME280;3073;42.660;23.316;2023-08-17T09:57:14;94525.94;;;39.82;29.03
6090;BME280;3073;42.660;23.316;2023-08-17T09:59:41;94524.09;;;39.50;28.94
6090;BME280;3073;42.660;23.316;2023-08-17T10:02:16;94527.03;;;39.84;29.26
6090;BME280;3073;42.660;23.316;2023-08-17T10:04:48;94526.47;;;40.97;28.34
6090;BME280;3073;42.660;23.316;2023-08-17T10:07:18;94517.91;;;41.49;27.20
6090;BME280;3073;42.660;23.316;2023-08-17T10:09:51;94530.66;;;40.73;28.29
6090;BME280;3073;42.660;23.316;2023-08-17T10:12:23;94512.34;;;41.44;27.26
6090;BME280;3073;42.660;23.316;2023-08-17T10:14:57;94522.16;;;40.87;27.70
6090;BME280;3073;42.660;23.316;2023-08-17T10:17:27;94513.03;;;40.47;28.04
6090;BME280;3073;42.660;23.316;2023-08-17T10:19:56;94507.28;;;42.24;26.67
6090;BME280;3073;42.660;23.316;2023-08-17T10:22:28;94507.53;;;42.69;26.13
6090;BME280;3073;42.660;23.316;2023-08-17T10:25:00;94512.50;;;41.96;27.07
6090;BME280;3073;42.660;23.316;2023-08-17T10:27:27;94513.63;;;41.52;26.91
6090;BME280;3073;42.660;23.316;2023-08-17T10:29:55;94513.16;;;41.19;27.44
6090;BME280;3073;42.660;23.316;2023-08-17T10:32:23;94517.69;;;42.43;26.19
6090;BME280;3073;42.660;23.316;2023-08-17T10:34:52;94515.16;;;43.29;24.97
6090;BME280;3073;42.660;23.316;2023-08-17T10:37:19;94513.47;;;42.64;25.13
6090;BME280;3073;42.660;23.316;2023-08-17T10:39:47;94511.53;;;42.65;24.99
6090;BME280;3073;42.660;23.316;2023-08-17T10:42:29;94512.06;;;42.20;26.15
6090;BME280;3073;42.660;23.316;2023-08-17T10:44:57;94504.41;;;42.18;25.96
6090;BME280;3073;42.660;23.316;2023-08-17T10:47:25;94500.03;;;41.68;26.31
6090;BME280;3073;42.660;23.316;2023-08-17T10:49:56;94497.69;;;41.36;25.71
6090;BME280;3073;42.660;23.316;2023-08-17T10:52:27;94499.69;;;41.10;26.51
6090;BME280;3073;42.660;23.316;2023-08-17T10:54:55;94495.97;;;41.63;26.09
6090;BME280;3073;42.660;23.316;2023-08-17T10:57:30;94501.59;;;40.46;26.83
6090;BME280;3073;42.660;23.316;2023-08-17T11:00:17;94496.94;;;40.63;26.47
6090;BME280;3073;42.660;23.316;2023-08-17T11:02:54;94485.94;;;41.55;25.56
6090;BME280;3073;42.660;23.316;2023-08-17T11:05:38;94480.38;;;40.27;27.39
6090;BME280;3073;42.660;23.316;2023-08-17T11:08:06;94482.44;;;42.32;25.64
6090;BME280;3073;42.660;23.316;2023-08-17T11:10:35;94486.94;;;43.70;24.98
6090;BME280;3073;42.660;23.316;2023-08-17T11:13:05;94487.28;;;41.38;25.58
6090;BME280;3073;42.660;23.316;2023-08-17T11:15:37;94482.03;;;42.12;25.58
6090;BME280;3073;42.660;23.316;2023-08-17T11:18:06;94489.09;;;42.98;24.43
6090;BME280;3073;42.660;23.316;2023-08-17T11:20:33;94479.28;;;44.04;25.18
6090;BME280;3073;42.660;23.316;2023-08-17T11:23:00;94481.91;;;45.06;24.49
6090;BME280;3073;42.660;23.316;2023-08-17T11:25:28;94471.28;;;43.59;25.67
6090;BME280;3073;42.660;23.316;2023-08-17T11:27:55;94466.16;;;43.34;25.56
6090;BME280;3073;42.660;23.316;2023-08-17T11:30:23;94478.28;;;43.47;26.27
6090;BME280;3073;42.660;23.316;2023-08-17T11:32:52;94466.47;;;42.59;26.37
6090;BME280;3073;42.660;23.316;2023-08-17T11:35:20;94469.38;;;42.92;26.61
6090;BME280;3073;42.660;23.316;2023-08-17T11:37:47;94461.06;;;41.98;27.08
6090;BME280;3073;42.660;23.316;2023-08-17T11:40:15;94459.97;;;40.83;28.09
6090;BME280;3073;42.660;23.316;2023-08-17T11:42:44;94460.94;;;40.64;28.49
6090;BME280;3073;42.660;23.316;2023-08-17T11:45:12;94460.00;;;41.52;28.26
6090;BME280;3073;42.660;23.316;2023-08-17T11:47:40;94468.25;;;43.21;26.56
6090;BME280;3073;42.660;23.316;2023-08-17T11:50:10;94454.38;;;43.77;26.44
6090;BME280;3073;42.660;23.316;2023-08-17T11:52:38;94449.34;;;44.30;25.53
6090;BME280;3073;42.660;23.316;2023-08-17T11:55:06;94467.75;;;44.22;25.72
6090;BME280;3073;42.660;23.316;2023-08-17T11:57:35;94454.97;;;43.81;25.84
6090;BME280;3073;42.660;23.316;2023-08-17T12:00:04;94460.66;;;45.23;25.03
6090;BME280;3073;42.660;23.316;2023-08-17T12:02:32;94447.59;;;42.41;26.50
6090;BME280;3073;42.660;23.316;2023-08-17T12:05:05;94458.88;;;40.81;27.86
6090;BME280;3073;42.660;23.316;2023-08-17T12:07:32;94446.59;;;41.18;27.87
6090;BME280;3073;42.660;23.316;2023-08-17T12:09:59;94455.81;;;39.90;28.99
6090;BME280;3073;42.660;23.316;2023-08-17T12:12:27;94452.47;;;40.53;29.11
6090;BME280;3073;42.660;23.316;2023-08-17T12:14:55;94450.47;;;40.70;29.17
6090;BME280;3073;42.660;23.316;2023-08-17T12:17:22;94447.31;;;40.84;28.66
6090;BME280;3073;42.660;23.316;2023-08-17T12:19:49;94434.56;;;42.71;27.12
6090;BME280;3073;42.660;23.316;2023-08-17T12:22:18;94448.56;;;43.33;26.39
6090;BME280;3073;42.660;23.316;2023-08-17T12:24:44;94440.47;;;43.69;26.21
6090;BME280;3073;42.660;23.316;2023-08-17T12:27:11;94436.03;;;43.57;26.31
6090;BME280;3073;42.660;23.316;2023-08-17T12:29:46;94439.78;;;41.17;28.31
6090;BME280;3073;42.660;23.316;2023-08-17T12:32:14;94442.53;;;39.74;29.25
6090;BME280;3073;42.660;23.316;2023-08-17T12:34:41;94440.69;;;40.13;29.50
6090;BME280;3073;42.660;23.316;2023-08-17T12:37:08;94438.50;;;42.17;28.17
6090;BME280;3073;42.660;23.316;2023-08-17T12:39:37;94436.69;;;42.85;27.16
6090;BME280;3073;42.660;23.316;2023-08-17T12:42:05;94446.06;;;42.71;27.06
6090;BME280;3073;42.660;23.316;2023-08-17T12:44:32;94441.53;;;43.81;26.34
6090;BME280;3073;42.660;23.316;2023-08-17T12:46:58;94436.53;;;42.70;27.37
6090;BME280;3073;42.660;23.316;2023-08-17T12:49:25;94440.44;;;43.96;26.38
6090;BME280;3073;42.660;23.316;2023-08-17T12:51:52;94443.78;;;43.55;26.94
6090;BME280;3073;42.660;23.316;2023-08-17T12:54:19;94444.69;;;43.79;26.31
6090;BME280;3073;42.660;23.316;2023-08-17T12:56:47;94447.56;;;42.72;27.21
6090;BME280;3073;42.660;23.316;2023-08-17T12:59:14;94450.63;;;41.00;30.61
6090;BME280;3073;42.660;23.316;2023-08-17T13:01:41;94440.25;;;41.02;31.21
6090;BME280;3073;42.660;23.316;2023-08-17T13:04:08;94440.56;;;41.39;31.03
6090;BME280;3073;42.660;23.316;2023-08-17T13:06:35;94443.47;;;40.47;32.05
6090;BME280;3073;42.660;23.316;2023-08-17T13:09:02;94439.09;;;40.15;32.47
6090;BME280;3073;42.660;23.316;2023-08-17T13:11:29;94440.72;;;39.84;32.86
6090;BME280;3073;42.660;23.316;2023-08-17T13:13:57;94454.06;;;39.71;32.99